Explora — IXWQ — position and weather

sailwx.info

Track history (hours):
 
Tides and Currents Weather Stations Pressure Air Temp Water Temp Dewpoint Dewpoint Depression Visibility Wind Speed Wind Dir Waves Ship Positions

Oceanographic research ship Explora (Italy)

Detailed information on ship capabilities available from University of Delaware's Ocean Information Center.

Last reported at 2017-May-23 21:59 UTC. Time now 2017-May-23 22:26 UTC.
Position N 38°42' W 009°10'.

Length 73 m; draft 5.5 m.

Type: Dredging. MMSI: 247028700.

Date/timePositionNaut miles runAvg speedWind from/ knotsBaromVisibWave heightAir tempDewpointWater temp
2017-May-23 21:59N 38°42' W 009°10'0 0.0
2017-May-23 21:26N 38°42' W 009°10'0 0.0
2017-May-23 20:59N 38°42' W 009°10'0 0.0
2017-May-23 20:26N 38°42' W 009°10'0 0.0
2017-May-23 19:59N 38°42' W 009°10'0 0.0
2017-May-23 19:26N 38°42' W 009°10'0 0.0
2017-May-23 18:20N 38°42' W 009°10'0 0.0
2017-May-23 17:53N 38°42' W 009°10'0 0.0
2017-May-23 17:20N 38°42' W 009°10'0 0.0
2017-May-23 16:53N 38°42' W 009°10'0 0.0
2017-May-23 16:29N 38°42' W 009°10'0 0.0
2017-May-23 15:56N 38°42' W 009°10'0 0.0
2017-May-23 15:26N 38°42' W 009°10'0 0.0
2017-May-23 14:56N 38°42' W 009°10'0 0.0
2017-May-23 14:29N 38°42' W 009°10'0 0.0
2017-May-23 13:26N 38°42' W 009°10'0 0.0
2017-May-23 12:59N 38°42' W 009°10'0 0.0
2017-May-23 12:29N 38°42' W 009°10'0 0.0
2017-May-23 11:47N 38°42' W 009°10'0 0.0
2017-May-23 11:25N 38°42' W 009°10'0 0.0
2017-May-23 10:55N 38°42' W 009°10'0 0.0
2017-May-23 10:22N 38°42' W 009°10'0 0.0
2017-May-23 09:58N 38°42' W 009°10'0 0.0
2017-May-23 08:43N 38°42' W 009°10'0 0.0
2017-May-23 08:25N 38°42' W 009°10'0 0.0
2017-May-23 07:55N 38°42' W 009°10'0 0.0
2017-May-23 07:16N 38°42' W 009°10'0 0.0
2017-May-23 06:58N 38°42' W 009°10'0 0.0
2017-May-23 06:28N 38°42' W 009°10'0 0.0
2017-May-23 05:58N 38°42' W 009°10'0 0.0
2017-May-23 05:19N 38°42' W 009°10'0 0.0
2017-May-23 04:49N 38°42' W 009°10'0 0.0
2017-May-23 04:28N 38°42' W 009°10'0 0.0
2017-May-23 03:58N 38°42' W 009°10'0 0.0
2017-May-23 02:58N 38°42' W 009°10'0 0.0
2017-May-23 02:25N 38°42' W 009°10'0 0.0
2017-May-23 01:55N 38°42' W 009°10'0 0.0
2017-May-23 01:28N 38°42' W 009°10'0 0.0
2017-May-23 00:58N 38°42' W 009°10'0 0.0
2017-May-23 00:28N 38°42' W 009°10'0 0.0
2017-May-22 23:52N 38°42' W 009°10'0 0.0
2017-May-22 23:28N 38°42' W 009°10'0 0.1
2017-May-22 23:00N 38°42' W 009°10'1 2.4
2017-May-22 22:29N 38°41' W 009°11'2 3.5
2017-May-22 22:00N 38°41' W 009°13'2 3.5
2017-May-22 21:29N 38°41' W 009°15'3 6.3
2017-May-22 21:00N 38°40' W 009°19'3 6.4
2017-May-22 20:31N 38°38' W 009°22'3 5.8
2017-May-22 20:00N 38°36' W 009°25'3 5.7
2017-May-22 19:31N 38°34' W 009°27'3 5.5
2017-May-22 19:00N 38°32' W 009°30'3 5.3
2017-May-22 18:30N 38°31' W 009°33'3 5.4
2017-May-22 18:01N 38°29' W 009°35'3 5.2
2017-May-22 17:30N 38°27' W 009°38'3 5.1
2017-May-22 17:00N 38°26' W 009°41'3 5.2
2017-May-22 16:31N 38°24' W 009°43'3 5.1
2017-May-22 16:00N 38°22' W 009°46'3 5.7
2017-May-22 15:30N 38°21' W 009°49'3 5.4
2017-May-22 15:00N 38°20' W 009°52'6 5.6
2017-May-22 14:01N 38°17' W 009°58'3 5.8
2017-May-22 13:30N 38°15' W 010°01'3 5.8
2017-May-22 13:01N 38°13' W 010°04'3 5.7
2017-May-22 12:30N 38°11' W 010°07'3 5.8
2017-May-22 12:01N 38°10' W 010°10'3 5.9
2017-May-22 11:31N 38°08' W 010°13'3 5.7
2017-May-22 11:00N 38°06' W 010°16'3 5.8
2017-May-22 10:30N 38°05' W 010°19'3 5.8
2017-May-22 10:01N 38°03' W 010°22'3 5.8
2017-May-22 09:30N 38°01' W 010°25'211 5.4
2017-May-20 18:32N 35°55' W 013°57'0 4.0
2017-May-20 18:30N 35°55' W 013°57'2 4.0
2017-May-20 18:00N 35°57' W 013°58'2 3.9
2017-May-20 17:31N 35°59' W 013°60'2 3.9
2017-May-20 17:00N 36°00' W 014°01'6 3.8
2017-May-20 15:24N 36°06' W 014°04'1 3.7
2017-May-20 15:00N 36°07' W 014°05'32 4.7
2017-May-20 08:15N 36°34' W 014°25'2 5.9
2017-May-20 07:53N 36°36' W 014°26'3 5.9
2017-May-20 07:25N 36°39' W 014°28'3 6.1
2017-May-20 06:54N 36°41' W 014°30'3 6.0
2017-May-20 06:27N 36°44' W 014°31'3 6.2
2017-May-20 05:55N 36°47' W 014°33'3 6.0
2017-May-20 05:29N 36°49' W 014°35'18 5.8
2017-May-20 02:20N 37°05' W 014°46'  
2017-May-17 16:00N 37°58' W 011°47'4 4.9
2017-May-17 15:17N 37°59' W 011°42'5 5.5
2017-May-17 14:17N 38°01' W 011°36'8 6.6
2017-May-17 13:01N 38°04' W 011°26'1 6.3
2017-May-17 12:50N 38°04' W 011°24'2 6.1
2017-May-17 12:30N 38°05' W 011°22'3 6.4
2017-May-17 12:01N 38°06' W 011°18'3 6.2
2017-May-17 11:30N 38°07' W 011°15'3 6.2
2017-May-17 10:58N 38°08' W 011°11'3 6.0
2017-May-17 10:25N 38°10' W 011°07'2 5.9
2017-May-17 10:00N 38°10' W 011°04'3 6.1
2017-May-17 09:30N 38°12' W 011°00'3 6.3
2017-May-17 09:01N 38°13' W 010°57'3 6.0
2017-May-17 08:31N 38°14' W 010°53'3 5.9
2017-May-17 08:00N 38°15' W 010°50'3 6.0
2017-May-17 07:31N 38°16' W 010°46'3 6.1
2017-May-17 07:00N 38°17' W 010°42'3 6.1
2017-May-17 06:31N 38°18' W 010°39'3 6.1
2017-May-17 06:00N 38°18' W 010°35'3 6.2
2017-May-17 05:31N 38°19' W 010°31'3 5.7
2017-May-17 05:00N 38°19' W 010°27'3 6.4
2017-May-17 04:31N 38°20' W 010°23'3 6.4
2017-May-17 04:00N 38°21' W 010°19'3 6.5
2017-May-17 03:31N 38°21' W 010°15'3 5.2
2017-May-17 03:01N 38°22' W 010°12'1 1.4
2017-May-17 02:30N 38°23' W 010°12'1 3.0
2017-May-17 02:00N 38°24' W 010°10'3 6.2
2017-May-17 01:30N 38°25' W 010°06'3 6.1
2017-May-17 01:01N 38°26' W 010°03'3 5.8
2017-May-17 00:30N 38°27' W 009°60'3 5.7
2017-May-17 00:01N 38°28' W 009°56'3 5.7
2017-May-16 23:31N 38°29' W 009°53'3 5.7
2017-May-16 23:00N 38°30' W 009°49'3 5.4
2017-May-16 22:30N 38°31' W 009°46'3 5.8
2017-May-16 22:00N 38°31' W 009°42'3 6.1
2017-May-16 21:30N 38°33' W 009°39'3 6.1
2017-May-16 21:01N 38°34' W 009°35'3 6.0
2017-May-16 20:31N 38°35' W 009°31'3 5.5
2017-May-16 20:00N 38°36' W 009°28'3 5.9
2017-May-16 19:30N 38°36' W 009°24'3 6.5
2017-May-16 19:01N 38°38' W 009°21'3 6.7
2017-May-16 18:30N 38°41' W 009°18'3 5.5
2017-May-16 18:00N 38°41' W 009°14'3 6.0
2017-May-16 17:31N 38°41' W 009°11'1 2.0
2017-May-16 16:59N 38°42' W 009°10'0 0.0
2017-May-16 16:26N 38°42' W 009°10'0 0.0
2017-May-16 15:59N 38°42' W 009°10'0 0.0
2017-May-16 15:29N 38°42' W 009°10'0 0.0
2017-May-16 14:59N 38°42' W 009°10'0 0.0
2017-May-16 14:29N 38°42' W 009°10'0 0.0
2017-May-16 13:20N 38°42' W 009°10'0 0.0
2017-May-16 12:56N 38°42' W 009°10'0 0.0
2017-May-16 12:26N 38°42' W 009°10'0 0.0
2017-May-16 11:59N 38°42' W 009°10'0 0.0
2017-May-16 11:26N 38°42' W 009°10'0 0.0
2017-May-16 10:59N 38°42' W 009°10'0 0.0
2017-May-16 10:29N 38°42' W 009°10'0 0.0
2017-May-16 09:56N 38°42' W 009°10'0 0.0
2017-May-16 09:26N 38°42' W 009°10'0 0.0
2017-May-16 08:59N 38°42' W 009°10'0 0.0
2017-May-16 08:29N 38°42' W 009°10'0 0.0
2017-May-16 07:59N 38°42' W 009°10'0 0.0
2017-May-16 07:29N 38°42' W 009°10'0 0.0
2017-May-16 06:59N 38°42' W 009°10'0 0.0
2017-May-16 06:26N 38°42' W 009°10'0 0.0
2017-May-16 05:59N 38°42' W 009°10'0 0.0
2017-May-16 05:29N 38°42' W 009°10'0 0.0
2017-May-16 04:59N 38°42' W 009°10'0 0.0
2017-May-16 04:29N 38°42' W 009°10'0 0.0
2017-May-16 03:56N 38°42' W 009°10'0 0.0
2017-May-16 03:29N 38°42' W 009°10'0 0.0
2017-May-16 02:50N 38°42' W 009°10'0 0.0
2017-May-16 02:26N 38°42' W 009°10'0 0.0
2017-May-16 01:56N 38°42' W 009°10'0 0.0
2017-May-16 01:29N 38°42' W 009°10'0 0.0
2017-May-16 00:59N 38°42' W 009°10'0 0.0
2017-May-16 00:29N 38°42' W 009°10'0 0.0
2017-May-15 23:56N 38°42' W 009°10'0 0.0
2017-May-15 23:23N 38°42' W 009°10'0 0.0
2017-May-15 22:59N 38°42' W 009°10'0 0.0
2017-May-15 22:29N 38°42' W 009°10'0 0.0
2017-May-15 21:56N 38°42' W 009°10'0 0.0
2017-May-15 21:23N 38°42' W 009°10'0 0.0
2017-May-15 20:59N 38°42' W 009°10'0 0.0
2017-May-15 20:29N 38°42' W 009°10'0 0.0
2017-May-15 19:56N 38°42' W 009°10'0 0.0
2017-May-15 19:29N 38°42' W 009°10'0 0.0
2017-May-15 18:59N 38°42' W 009°10'0 0.0
2017-May-15 18:17N 38°42' W 009°10'0 0.0
2017-May-15 17:59N 38°42' W 009°10'0 0.0
2017-May-15 17:26N 38°42' W 009°10'0 0.0
2017-May-15 16:56N 38°42' W 009°10'0 0.0
2017-May-15 16:17N 38°42' W 009°10'0 0.0
2017-May-15 15:59N 38°42' W 009°10'0 0.0
2017-May-15 15:26N 38°42' W 009°10'0 0.0
2017-May-15 14:59N 38°42' W 009°10'0 0.0
2017-May-15 13:59N 38°42' W 009°10'0 0.0
2017-May-15 13:23N 38°42' W 009°10'0 0.0
2017-May-15 12:59N 38°42' W 009°10'0 0.0
2017-May-15 11:59N 38°42' W 009°10'0 0.0
2017-May-15 11:29N 38°42' W 009°10'0 0.0
2017-May-15 10:53N 38°42' W 009°10'0 0.0
2017-May-15 10:29N 38°42' W 009°10'0 0.0
2017-May-15 09:58N 38°42' W 009°10'0 0.0
2017-May-15 08:58N 38°42' W 009°10'0 0.0
2017-May-15 08:22N 38°42' W 009°10'0 0.0
2017-May-15 07:55N 38°42' W 009°10'0 0.0
2017-May-15 07:19N 38°42' W 009°10'0 0.0
2017-May-15 06:58N 38°42' W 009°10'0 0.0
2017-May-15 06:28N 38°42' W 009°10'0 0.0
2017-May-15 05:58N 38°42' W 009°10'0 0.0
2017-May-15 05:28N 38°42' W 009°10'0 0.0
2017-May-15 04:58N 38°42' W 009°10'0 0.0
2017-May-15 04:22N 38°42' W 009°10'0 0.0
2017-May-15 03:58N 38°42' W 009°10'0 0.0
2017-May-15 03:22N 38°42' W 009°10'0 0.0
2017-May-15 02:58N 38°42' W 009°10'0 0.0
2017-May-15 02:10N 38°42' W 009°10'0 0.0
2017-May-15 01:58N 38°42' W 009°10'0 0.0
2017-May-15 01:28N 38°42' W 009°10'0 0.0
2017-May-15 00:58N 38°42' W 009°10'0 0.0
2017-May-15 00:28N 38°42' W 009°10'0 0.0
2017-May-14 23:58N 38°42' W 009°10'0 0.0
2017-May-14 23:25N 38°42' W 009°10'0 0.0
2017-May-14 22:58N 38°42' W 009°10'0 0.0
2017-May-14 22:28N 38°42' W 009°10'0 0.0
2017-May-14 21:49N 38°42' W 009°10'0 0.0
2017-May-14 21:28N 38°42' W 009°10'0 0.0
2017-May-14 20:46N 38°42' W 009°10'0 0.0
2017-May-14 20:28N 38°42' W 009°10'0 0.0
2017-May-14 19:58N 38°42' W 009°10'0 0.0
2017-May-14 19:28N 38°42' W 009°10'0 0.0
2017-May-14 18:58N 38°42' W 009°10'0 0.0
2017-May-14 18:28N 38°42' W 009°10'0 0.0
2017-May-14 17:58N 38°42' W 009°10'0 0.0
2017-May-14 17:25N 38°42' W 009°10'0 0.0
2017-May-14 16:58N 38°42' W 009°10'0 0.0
2017-May-14 16:28N 38°42' W 009°10'0 0.0
2017-May-14 15:58N 38°42' W 009°10'0 0.0
2017-May-14 15:28N 38°42' W 009°10'0 0.0
2017-May-14 14:58N 38°42' W 009°10'0 0.0
2017-May-14 14:25N 38°42' W 009°10'0 0.0
2017-May-14 13:28N 38°42' W 009°10'0 0.0
2017-May-14 12:58N 38°42' W 009°10'0 0.0
2017-May-14 12:28N 38°42' W 009°10'0 0.0
2017-May-14 11:55N 38°42' W 009°10'0 0.0
2017-May-14 11:25N 38°42' W 009°10'0 0.0
2017-May-14 10:58N 38°42' W 009°10'0 0.0
2017-May-14 10:28N 38°42' W 009°10'0 0.0
2017-May-14 09:58N 38°42' W 009°10'0 0.0
2017-May-14 09:28N 38°42' W 009°10'0 0.0
2017-May-14 08:55N 38°42' W 009°10'0 0.0
2017-May-14 08:28N 38°42' W 009°10'0 0.0
2017-May-14 07:46N 38°42' W 009°10'0 0.0
2017-May-14 07:16N 38°42' W 009°10'0 0.0
2017-May-14 06:55N 38°42' W 009°10'0 0.0
2017-May-14 06:22N 38°42' W 009°10'0 0.0
2017-May-14 05:52N 38°42' W 009°10'0 0.0
2017-May-14 05:28N 38°42' W 009°10'0 0.0
2017-May-14 04:58N 38°42' W 009°10'0 0.0
2017-May-14 04:22N 38°42' W 009°10'0 0.0
2017-May-14 03:52N 38°42' W 009°10'0 0.0
2017-May-14 03:28N 38°42' W 009°10'0 0.0
2017-May-14 02:58N 38°42' W 009°10'0 0.0
2017-May-14 02:28N 38°42' W 009°10'0 0.0
2017-May-14 01:58N 38°42' W 009°10'0 0.0
2017-May-14 01:19N 38°42' W 009°10'0 0.0
2017-May-14 00:52N 38°42' W 009°10'0 0.0
2017-May-14 00:28N 38°42' W 009°10'0 0.0
2017-May-13 23:49N 38°42' W 009°10'0 0.0
2017-May-13 23:10N 38°42' W 009°10'0 0.0
2017-May-13 22:51N 38°42' W 009°10'0 0.0
2017-May-13 22:27N 38°42' W 009°10'  
Track history (hours):
 
Tides and Currents Weather Stations Pressure Air Temp Water Temp Dewpoint Dewpoint Depression Visibility Wind Speed Wind Dir Waves Ship Positions

Oceanographic research ship Explora (Italy)

Detailed information on ship capabilities available from University of Delaware's Ocean Information Center.

Last reported at 2017-May-23 21:59 UTC. Time now 2017-May-23 22:26 UTC.
Position N 38°42' W 009°10'.

Length 73 m; draft 5.5 m.

Type: Dredging. MMSI: 247028700.

Date/timePositionNaut miles runAvg speedWind from/ knotsBaromVisibWave heightAir tempDewpointWater temp
2017-May-23 21:59N 38°42' W 009°10'0 0.0
2017-May-23 21:26N 38°42' W 009°10'0 0.0
2017-May-23 20:59N 38°42' W 009°10'0 0.0
2017-May-23 20:26N 38°42' W 009°10'0 0.0
2017-May-23 19:59N 38°42' W 009°10'0 0.0
2017-May-23 19:26N 38°42' W 009°10'0 0.0
2017-May-23 18:20N 38°42' W 009°10'0 0.0
2017-May-23 17:53N 38°42' W 009°10'0 0.0
2017-May-23 17:20N 38°42' W 009°10'0 0.0
2017-May-23 16:53N 38°42' W 009°10'0 0.0
2017-May-23 16:29N 38°42' W 009°10'0 0.0
2017-May-23 15:56N 38°42' W 009°10'0 0.0
2017-May-23 15:26N 38°42' W 009°10'0 0.0
2017-May-23 14:56N 38°42' W 009°10'0 0.0
2017-May-23 14:29N 38°42' W 009°10'0 0.0
2017-May-23 13:26N 38°42' W 009°10'0 0.0
2017-May-23 12:59N 38°42' W 009°10'0 0.0
2017-May-23 12:29N 38°42' W 009°10'0 0.0
2017-May-23 11:47N 38°42' W 009°10'0 0.0
2017-May-23 11:25N 38°42' W 009°10'0 0.0
2017-May-23 10:55N 38°42' W 009°10'0 0.0
2017-May-23 10:22N 38°42' W 009°10'0 0.0
2017-May-23 09:58N 38°42' W 009°10'0 0.0
2017-May-23 08:43N 38°42' W 009°10'0 0.0
2017-May-23 08:25N 38°42' W 009°10'0 0.0
2017-May-23 07:55N 38°42' W 009°10'0 0.0
2017-May-23 07:16N 38°42' W 009°10'0 0.0
2017-May-23 06:58N 38°42' W 009°10'0 0.0
2017-May-23 06:28N 38°42' W 009°10'0 0.0
2017-May-23 05:58N 38°42' W 009°10'0 0.0
2017-May-23 05:19N 38°42' W 009°10'0 0.0
2017-May-23 04:49N 38°42' W 009°10'0 0.0
2017-May-23 04:28N 38°42' W 009°10'0 0.0
2017-May-23 03:58N 38°42' W 009°10'0 0.0
2017-May-23 02:58N 38°42' W 009°10'0 0.0
2017-May-23 02:25N 38°42' W 009°10'0 0.0
2017-May-23 01:55N 38°42' W 009°10'0 0.0
2017-May-23 01:28N 38°42' W 009°10'0 0.0
2017-May-23 00:58N 38°42' W 009°10'0 0.0
2017-May-23 00:28N 38°42' W 009°10'0 0.0
2017-May-22 23:52N 38°42' W 009°10'0 0.0
2017-May-22 23:28N 38°42' W 009°10'0 0.1
2017-May-22 23:00N 38°42' W 009°10'1 2.4
2017-May-22 22:29N 38°41' W 009°11'2 3.5
2017-May-22 22:00N 38°41' W 009°13'2 3.5
2017-May-22 21:29N 38°41' W 009°15'3 6.3
2017-May-22 21:00N 38°40' W 009°19'3 6.4
2017-May-22 20:31N 38°38' W 009°22'3 5.8
2017-May-22 20:00N 38°36' W 009°25'3 5.7
2017-May-22 19:31N 38°34' W 009°27'3 5.5
2017-May-22 19:00N 38°32' W 009°30'3 5.3
2017-May-22 18:30N 38°31' W 009°33'3 5.4
2017-May-22 18:01N 38°29' W 009°35'3 5.2
2017-May-22 17:30N 38°27' W 009°38'3 5.1
2017-May-22 17:00N 38°26' W 009°41'3 5.2
2017-May-22 16:31N 38°24' W 009°43'3 5.1
2017-May-22 16:00N 38°22' W 009°46'3 5.7
2017-May-22 15:30N 38°21' W 009°49'3 5.4
2017-May-22 15:00N 38°20' W 009°52'6 5.6
2017-May-22 14:01N 38°17' W 009°58'3 5.8
2017-May-22 13:30N 38°15' W 010°01'3 5.8
2017-May-22 13:01N 38°13' W 010°04'3 5.7
2017-May-22 12:30N 38°11' W 010°07'3 5.8
2017-May-22 12:01N 38°10' W 010°10'3 5.9
2017-May-22 11:31N 38°08' W 010°13'3 5.7
2017-May-22 11:00N 38°06' W 010°16'3 5.8
2017-May-22 10:30N 38°05' W 010°19'3 5.8
2017-May-22 10:01N 38°03' W 010°22'3 5.8
2017-May-22 09:30N 38°01' W 010°25'211 5.4
2017-May-20 18:32N 35°55' W 013°57'0 4.0
2017-May-20 18:30N 35°55' W 013°57'2 4.0
2017-May-20 18:00N 35°57' W 013°58'2 3.9
2017-May-20 17:31N 35°59' W 013°60'2 3.9
2017-May-20 17:00N 36°00' W 014°01'6 3.8
2017-May-20 15:24N 36°06' W 014°04'1 3.7
2017-May-20 15:00N 36°07' W 014°05'32 4.7
2017-May-20 08:15N 36°34' W 014°25'2 5.9
2017-May-20 07:53N 36°36' W 014°26'3 5.9
2017-May-20 07:25N 36°39' W 014°28'3 6.1
2017-May-20 06:54N 36°41' W 014°30'3 6.0
2017-May-20 06:27N 36°44' W 014°31'3 6.2
2017-May-20 05:55N 36°47' W 014°33'3 6.0
2017-May-20 05:29N 36°49' W 014°35'18 5.8
2017-May-20 02:20N 37°05' W 014°46'  
2017-May-17 16:00N 37°58' W 011°47'4 4.9
2017-May-17 15:17N 37°59' W 011°42'5 5.5
2017-May-17 14:17N 38°01' W 011°36'8 6.6
2017-May-17 13:01N 38°04' W 011°26'1 6.3
2017-May-17 12:50N 38°04' W 011°24'2 6.1
2017-May-17 12:30N 38°05' W 011°22'3 6.4
2017-May-17 12:01N 38°06' W 011°18'3 6.2
2017-May-17 11:30N 38°07' W 011°15'3 6.2
2017-May-17 10:58N 38°08' W 011°11'3 6.0
2017-May-17 10:25N 38°10' W 011°07'2 5.9
2017-May-17 10:00N 38°10' W 011°04'3 6.1
2017-May-17 09:30N 38°12' W 011°00'3 6.3
2017-May-17 09:01N 38°13' W 010°57'3 6.0
2017-May-17 08:31N 38°14' W 010°53'3 5.9
2017-May-17 08:00N 38°15' W 010°50'3 6.0
2017-May-17 07:31N 38°16' W 010°46'3 6.1
2017-May-17 07:00N 38°17' W 010°42'3 6.1
2017-May-17 06:31N 38°18' W 010°39'3 6.1
2017-May-17 06:00N 38°18' W 010°35'3 6.2
2017-May-17 05:31N 38°19' W 010°31'3 5.7
2017-May-17 05:00N 38°19' W 010°27'3 6.4
2017-May-17 04:31N 38°20' W 010°23'3 6.4
2017-May-17 04:00N 38°21' W 010°19'3 6.5
2017-May-17 03:31N 38°21' W 010°15'3 5.2
2017-May-17 03:01N 38°22' W 010°12'1 1.4
2017-May-17 02:30N 38°23' W 010°12'1 3.0
2017-May-17 02:00N 38°24' W 010°10'3 6.2
2017-May-17 01:30N 38°25' W 010°06'3 6.1
2017-May-17 01:01N 38°26' W 010°03'3 5.8
2017-May-17 00:30N 38°27' W 009°60'3 5.7
2017-May-17 00:01N 38°28' W 009°56'3 5.7
2017-May-16 23:31N 38°29' W 009°53'3 5.7
2017-May-16 23:00N 38°30' W 009°49'3 5.4
2017-May-16 22:30N 38°31' W 009°46'3 5.8
2017-May-16 22:00N 38°31' W 009°42'3 6.1
2017-May-16 21:30N 38°33' W 009°39'3 6.1
2017-May-16 21:01N 38°34' W 009°35'3 6.0
2017-May-16 20:31N 38°35' W 009°31'3 5.5
2017-May-16 20:00N 38°36' W 009°28'3 5.9
2017-May-16 19:30N 38°36' W 009°24'3 6.5
2017-May-16 19:01N 38°38' W 009°21'3 6.7
2017-May-16 18:30N 38°41' W 009°18'3 5.5
2017-May-16 18:00N 38°41' W 009°14'3 6.0
2017-May-16 17:31N 38°41' W 009°11'1 2.0
2017-May-16 16:59N 38°42' W 009°10'0 0.0
2017-May-16 16:26N 38°42' W 009°10'0 0.0
2017-May-16 15:59N 38°42' W 009°10'0 0.0
2017-May-16 15:29N 38°42' W 009°10'0 0.0
2017-May-16 14:59N 38°42' W 009°10'0 0.0
2017-May-16 14:29N 38°42' W 009°10'0 0.0
2017-May-16 13:20N 38°42' W 009°10'0 0.0
2017-May-16 12:56N 38°42' W 009°10'0 0.0
2017-May-16 12:26N 38°42' W 009°10'0 0.0
2017-May-16 11:59N 38°42' W 009°10'0 0.0
2017-May-16 11:26N 38°42' W 009°10'0 0.0
2017-May-16 10:59N 38°42' W 009°10'0 0.0
2017-May-16 10:29N 38°42' W 009°10'0 0.0
2017-May-16 09:56N 38°42' W 009°10'0 0.0
2017-May-16 09:26N 38°42' W 009°10'0 0.0
2017-May-16 08:59N 38°42' W 009°10'0 0.0
2017-May-16 08:29N 38°42' W 009°10'0 0.0
2017-May-16 07:59N 38°42' W 009°10'0 0.0
2017-May-16 07:29N 38°42' W 009°10'0 0.0
2017-May-16 06:59N 38°42' W 009°10'0 0.0
2017-May-16 06:26N 38°42' W 009°10'0 0.0
2017-May-16 05:59N 38°42' W 009°10'0 0.0
2017-May-16 05:29N 38°42' W 009°10'0 0.0
2017-May-16 04:59N 38°42' W 009°10'0 0.0
2017-May-16 04:29N 38°42' W 009°10'0 0.0
2017-May-16 03:56N 38°42' W 009°10'0 0.0
2017-May-16 03:29N 38°42' W 009°10'0 0.0
2017-May-16 02:50N 38°42' W 009°10'0 0.0
2017-May-16 02:26N 38°42' W 009°10'0 0.0
2017-May-16 01:56N 38°42' W 009°10'0 0.0
2017-May-16 01:29N 38°42' W 009°10'0 0.0
2017-May-16 00:59N 38°42' W 009°10'0 0.0
2017-May-16 00:29N 38°42' W 009°10'0 0.0
2017-May-15 23:56N 38°42' W 009°10'0 0.0
2017-May-15 23:23N 38°42' W 009°10'0 0.0
2017-May-15 22:59N 38°42' W 009°10'0 0.0
2017-May-15 22:29N 38°42' W 009°10'0 0.0
2017-May-15 21:56N 38°42' W 009°10'0 0.0
2017-May-15 21:23N 38°42' W 009°10'0 0.0
2017-May-15 20:59N 38°42' W 009°10'0 0.0
2017-May-15 20:29N 38°42' W 009°10'0 0.0
2017-May-15 19:56N 38°42' W 009°10'0 0.0
2017-May-15 19:29N 38°42' W 009°10'0 0.0
2017-May-15 18:59N 38°42' W 009°10'0 0.0
2017-May-15 18:17N 38°42' W 009°10'0 0.0
2017-May-15 17:59N 38°42' W 009°10'0 0.0
2017-May-15 17:26N 38°42' W 009°10'0 0.0
2017-May-15 16:56N 38°42' W 009°10'0 0.0
2017-May-15 16:17N 38°42' W 009°10'0 0.0
2017-May-15 15:59N 38°42' W 009°10'0 0.0
2017-May-15 15:26N 38°42' W 009°10'0 0.0
2017-May-15 14:59N 38°42' W 009°10'0 0.0
2017-May-15 13:59N 38°42' W 009°10'0 0.0
2017-May-15 13:23N 38°42' W 009°10'0 0.0
2017-May-15 12:59N 38°42' W 009°10'0 0.0
2017-May-15 11:59N 38°42' W 009°10'0 0.0
2017-May-15 11:29N 38°42' W 009°10'0 0.0
2017-May-15 10:53N 38°42' W 009°10'0 0.0
2017-May-15 10:29N 38°42' W 009°10'0 0.0
2017-May-15 09:58N 38°42' W 009°10'0 0.0
2017-May-15 08:58N 38°42' W 009°10'0 0.0
2017-May-15 08:22N 38°42' W 009°10'0 0.0
2017-May-15 07:55N 38°42' W 009°10'0 0.0
2017-May-15 07:19N 38°42' W 009°10'0 0.0
2017-May-15 06:58N 38°42' W 009°10'0 0.0
2017-May-15 06:28N 38°42' W 009°10'0 0.0
2017-May-15 05:58N 38°42' W 009°10'0 0.0
2017-May-15 05:28N 38°42' W 009°10'0 0.0
2017-May-15 04:58N 38°42' W 009°10'0 0.0
2017-May-15 04:22N 38°42' W 009°10'0 0.0
2017-May-15 03:58N 38°42' W 009°10'0 0.0
2017-May-15 03:22N 38°42' W 009°10'0 0.0
2017-May-15 02:58N 38°42' W 009°10'0 0.0
2017-May-15 02:10N 38°42' W 009°10'0 0.0
2017-May-15 01:58N 38°42' W 009°10'0 0.0
2017-May-15 01:28N 38°42' W 009°10'0 0.0
2017-May-15 00:58N 38°42' W 009°10'0 0.0
2017-May-15 00:28N 38°42' W 009°10'0 0.0
2017-May-14 23:58N 38°42' W 009°10'0 0.0
2017-May-14 23:25N 38°42' W 009°10'0 0.0
2017-May-14 22:58N 38°42' W 009°10'0 0.0
2017-May-14 22:28N 38°42' W 009°10'0 0.0
2017-May-14 21:49N 38°42' W 009°10'0 0.0
2017-May-14 21:28N 38°42' W 009°10'0 0.0
2017-May-14 20:46N 38°42' W 009°10'0 0.0
2017-May-14 20:28N 38°42' W 009°10'0 0.0
2017-May-14 19:58N 38°42' W 009°10'0 0.0
2017-May-14 19:28N 38°42' W 009°10'0 0.0
2017-May-14 18:58N 38°42' W 009°10'0 0.0
2017-May-14 18:28N 38°42' W 009°10'0 0.0
2017-May-14 17:58N 38°42' W 009°10'0 0.0
2017-May-14 17:25N 38°42' W 009°10'0 0.0
2017-May-14 16:58N 38°42' W 009°10'0 0.0
2017-May-14 16:28N 38°42' W 009°10'0 0.0
2017-May-14 15:58N 38°42' W 009°10'0 0.0
2017-May-14 15:28N 38°42' W 009°10'0 0.0
2017-May-14 14:58N 38°42' W 009°10'0 0.0
2017-May-14 14:25N 38°42' W 009°10'0 0.0
2017-May-14 13:28N 38°42' W 009°10'0 0.0
2017-May-14 12:58N 38°42' W 009°10'0 0.0
2017-May-14 12:28N 38°42' W 009°10'0 0.0
2017-May-14 11:55N 38°42' W 009°10'0 0.0
2017-May-14 11:25N 38°42' W 009°10'0 0.0
2017-May-14 10:58N 38°42' W 009°10'0 0.0
2017-May-14 10:28N 38°42' W 009°10'0 0.0
2017-May-14 09:58N 38°42' W 009°10'0 0.0
2017-May-14 09:28N 38°42' W 009°10'0 0.0
2017-May-14 08:55N 38°42' W 009°10'0 0.0
2017-May-14 08:28N 38°42' W 009°10'0 0.0
2017-May-14 07:46N 38°42' W 009°10'0 0.0
2017-May-14 07:16N 38°42' W 009°10'0 0.0
2017-May-14 06:55N 38°42' W 009°10'0 0.0
2017-May-14 06:22N 38°42' W 009°10'0 0.0
2017-May-14 05:52N 38°42' W 009°10'0 0.0
2017-May-14 05:28N 38°42' W 009°10'0 0.0
2017-May-14 04:58N 38°42' W 009°10'0 0.0
2017-May-14 04:22N 38°42' W 009°10'0 0.0
2017-May-14 03:52N 38°42' W 009°10'0 0.0
2017-May-14 03:28N 38°42' W 009°10'0 0.0
2017-May-14 02:58N 38°42' W 009°10'0 0.0
2017-May-14 02:28N 38°42' W 009°10'0 0.0
2017-May-14 01:58N 38°42' W 009°10'0 0.0
2017-May-14 01:19N 38°42' W 009°10'0 0.0
2017-May-14 00:52N 38°42' W 009°10'0 0.0
2017-May-14 00:28N 38°42' W 009°10'0 0.0
2017-May-13 23:49N 38°42' W 009°10'0 0.0
2017-May-13 23:10N 38°42' W 009°10'0 0.0
2017-May-13 22:51N 38°42' W 009°10'0 0.0
2017-May-13 22:27N 38°42' W 009°10'  

Dump ship's entire track history